Time;durP1;ratioP1;P1;durP2;ratioP2;P2;SDS_P1;SDS_P2;PMS_P1;PMS_P2;Temp;Humidity;BMP_temperature;BMP_pressure;BME280_temperature;BME280_humidity;BME280_pressure;Samples;Min_cycle;Max_cycle;Signal;HPM_P1;HPM_P2
2023/10/31 00:00:15;;;;;;;2.38;1.10;;;;;;;15.42;96.65;98722.16;4985550;28;20551;-68
2023/10/31 00:02:41;;;;;;;2.70;1.33;;;;;;;15.25;96.96;98707.19;4990683;28;20149;-67
2023/10/31 00:05:06;;;;;;;1.88;1.00;;;;;;;15.30;97.72;98718.25;4974792;28;20032;-67
2023/10/31 00:07:32;;;;;;;2.20;1.20;;;;;;;15.25;98.23;98705.19;4998906;28;20049;-67
2023/10/31 00:09:57;;;;;;;2.63;1.30;;;;;;;15.36;97.41;98710.31;4990524;28;20041;-68
2023/10/31 00:12:23;;;;;;;2.90;1.17;;;;;;;15.42;97.15;98703.19;4991807;28;20026;-68
2023/10/31 00:14:48;;;;;;;1.48;0.95;;;;;;;15.37;96.89;98700.97;4990674;28;20041;-67
2023/10/31 00:17:13;;;;;;;3.67;1.08;;;;;;;15.33;97.71;98697.59;4986067;28;20038;-67
2023/10/31 00:19:39;;;;;;;3.17;1.40;;;;;;;15.36;97.01;98696.75;4990075;28;20022;-68
2023/10/31 00:22:05;;;;;;;1.08;0.70;;;;;;;15.29;98.09;98689.59;4990382;28;20117;-67
2023/10/31 00:24:32;;;;;;;1.33;1.00;;;;;;;15.28;97.97;98692.72;4993416;28;20711;-68
2023/10/31 00:27:00;;;;;;;1.38;0.90;;;;;;;15.35;98.05;98695.97;4987424;28;20033;-67
2023/10/31 00:29:26;;;;;;;1.98;1.40;;;;;;;15.43;97.37;98698.53;4999926;28;20049;-67
2023/10/31 00:31:51;;;;;;;1.23;1.08;;;;;;;15.30;97.56;98693.81;4990857;28;20042;-67
2023/10/31 00:34:17;;;;;;;1.27;0.90;;;;;;;15.44;97.18;98691.88;4989951;28;20026;-68
2023/10/31 00:36:42;;;;;;;2.58;0.80;;;;;;;15.48;96.91;98693.31;4990460;28;20022;-68
2023/10/31 00:39:08;;;;;;;1.48;0.93;;;;;;;15.44;97.20;98683.75;4972270;28;20412;-69
2023/10/31 00:41:33;;;;;;;1.40;1.08;;;;;;;15.46;97.29;98692.22;5006014;28;20443;-68
2023/10/31 00:44:00;;;;;;;1.90;1.08;;;;;;;15.56;96.42;98694.59;4975967;28;20030;-68
2023/10/31 00:46:28;;;;;;;2.08;0.93;;;;;;;15.40;97.52;98691.97;4990838;28;20037;-68
2023/10/31 00:48:54;;;;;;;1.25;1.00;;;;;;;15.36;97.63;98680.47;4991939;28;21557;-68
2023/10/31 00:51:21;;;;;;;4.25;0.98;;;;;;;15.32;98.32;98679.81;4990406;28;20038;-67
2023/10/31 00:53:47;;;;;;;2.40;1.30;;;;;;;15.37;98.67;98666.47;4990101;28;20038;-68
2023/10/31 00:56:12;;;;;;;1.77;1.00;;;;;;;15.39;98.52;98668.75;4976024;28;20026;-67
2023/10/31 00:58:38;;;;;;;1.60;1.35;;;;;;;15.41;96.95;98663.63;4983920;28;20093;-67
2023/10/31 01:01:03;;;;;;;2.00;1.20;;;;;;;15.47;97.44;98658.44;5003771;28;20061;-67
2023/10/31 01:03:29;;;;;;;2.78;1.30;;;;;;;15.48;97.74;98659.97;4976141;28;20164;-67
2023/10/31 01:05:54;;;;;;;2.30;1.42;;;;;;;15.45;97.78;98642.63;5004973;28;20053;-68
2023/10/31 01:08:19;;;;;;;2.83;1.13;;;;;;;15.45;97.96;98645.31;4990294;28;20525;-67
2023/10/31 01:10:45;;;;;;;2.70;1.05;;;;;;;15.47;97.95;98642.16;4989329;28;20038;-67
2023/10/31 01:13:12;;;;;;;3.60;1.02;;;;;;;15.47;97.91;98651.06;4976349;28;20028;-67
2023/10/31 01:15:37;;;;;;;2.03;1.00;;;;;;;15.46;98.05;98663.13;4987999;28;20032;-67
2023/10/31 01:18:03;;;;;;;1.35;1.00;;;;;;;15.50;97.52;98652.94;4992961;28;20093;-67
2023/10/31 01:20:28;;;;;;;1.65;1.10;;;;;;;15.46;97.86;98652.28;4991118;28;20515;-67
2023/10/31 01:22:54;;;;;;;1.60;0.90;;;;;;;15.20;99.10;98646.09;5007063;28;20128;-67
2023/10/31 01:25:19;;;;;;;1.83;1.30;;;;;;;15.41;98.10;98639.22;5007241;28;20029;-67
2023/10/31 01:27:45;;;;;;;0.85;0.85;;;;;;;15.47;97.84;98653.78;4991047;28;20078;-67
2023/10/31 01:30:11;;;;;;;1.52;1.02;;;;;;;15.50;97.25;98649.44;4992733;28;20373;-69
2023/10/31 01:32:36;;;;;;;3.85;1.20;;;;;;;15.39;97.60;98647.81;4992198;28;20034;-66
2023/10/31 01:35:03;;;;;;;1.10;1.00;;;;;;;15.36;98.39;98647.94;4984316;28;20446;-67
2023/10/31 01:37:29;;;;;;;1.45;1.00;;;;;;;15.30;99.44;98644.25;4989992;28;20093;-66
2023/10/31 01:39:58;;;;;;;1.70;0.98;;;;;;;15.44;98.67;98630.25;4986273;28;20619;-67
2023/10/31 01:42:24;;;;;;;4.43;1.10;;;;;;;15.41;98.09;98636.50;4987113;28;20030;-67
2023/10/31 01:44:49;;;;;;;1.30;1.20;;;;;;;15.29;99.32;98648.16;5006053;28;20053;-67
2023/10/31 01:47:15;;;;;;;2.20;1.13;;;;;;;15.32;99.16;98641.84;4978545;28;20395;-67
2023/10/31 01:49:41;;;;;;;1.55;1.27;;;;;;;15.38;98.20;98643.59;4986499;28;20034;-67
2023/10/31 01:52:06;;;;;;;2.63;1.50;;;;;;;15.31;98.77;98637.63;4977946;28;20035;-67
2023/10/31 01:54:35;;;;;;;2.80;1.27;;;;;;;15.23;99.11;98628.94;4993445;28;20034;-67
2023/10/31 01:57:04;;;;;;;3.33;1.50;;;;;;;15.20;99.47;98634.47;5007568;28;20105;-66
2023/10/31 01:59:30;;;;;;;2.55;1.15;;;;;;;15.16;99.63;98625.69;4990521;28;20048;-67
2023/10/31 02:01:57;;;;;;;2.25;1.35;;;;;;;15.21;99.89;98623.19;4992810;28;20034;-67
2023/10/31 02:04:24;;;;;;;1.67;1.30;;;;;;;15.33;99.24;98621.66;5004764;28;20038;-67
2023/10/31 02:06:52;;;;;;;4.38;1.65;;;;;;;15.34;98.61;98612.34;4984085;28;20034;-66
2023/10/31 02:09:18;;;;;;;2.60;1.90;;;;;;;15.27;99.13;98602.47;5003575;28;20056;-67
2023/10/31 02:11:44;;;;;;;2.95;1.42;;;;;;;15.33;99.10;98614.28;4990815;28;20061;-67
2023/10/31 02:14:09;;;;;;;2.60;1.55;;;;;;;15.18;99.05;98602.38;4989826;28;20034;-67
2023/10/31 02:16:34;;;;;;;2.17;1.52;;;;;;;15.23;99.20;98606.50;4990251;28;20023;-67
2023/10/31 02:19:00;;;;;;;2.00;1.30;;;;;;;15.19;99.39;98601.16;4994716;28;20244;-67
2023/10/31 02:21:27;;;;;;;2.45;1.42;;;;;;;15.17;100.00;98591.97;4970836;28;20520;-68
2023/10/31 02:24:01;;;;;;;3.40;1.33;;;;;;;15.16;100.00;98585.00;4987040;28;20045;-67
2023/10/31 02:26:34;;;;;;;3.20;1.77;;;;;;;15.26;99.59;98586.63;4981344;28;20030;-67
2023/10/31 02:29:01;;;;;;;4.88;1.75;;;;;;;15.36;98.90;98571.97;4982758;28;20149;-67
2023/10/31 02:31:27;;;;;;;2.60;1.83;;;;;;;15.33;99.28;98570.88;4982375;28;20049;-67
2023/10/31 02:33:53;;;;;;;4.63;1.95;;;;;;;15.29;98.69;98566.78;4992460;28;20030;-68
2023/10/31 02:36:19;;;;;;;4.10;1.70;;;;;;;15.30;98.87;98563.63;4985005;28;20630;-67
2023/10/31 02:38:45;;;;;;;2.83;1.60;;;;;;;15.39;98.58;98566.44;4987042;28;20019;-67
2023/10/31 02:41:11;;;;;;;3.90;2.00;;;;;;;15.37;98.44;98571.53;4988927;28;20038;-67
2023/10/31 02:43:40;;;;;;;2.72;1.70;;;;;;;15.31;98.98;98565.13;4975906;28;20051;-68
2023/10/31 02:46:06;;;;;;;8.07;1.92;;;;;;;15.31;98.57;98564.41;4980992;28;20030;-67
2023/10/31 02:48:37;;;;;;;4.03;1.92;;;;;;;15.30;98.77;98555.50;4985335;28;20121;-68
2023/10/31 02:51:07;;;;;;;7.93;2.00;;;;;;;15.26;99.46;98548.66;4993098;28;20034;-68
2023/10/31 02:53:34;;;;;;;4.55;2.28;;;;;;;15.22;99.76;98551.50;4972556;28;20042;-67
2023/10/31 02:56:00;;;;;;;6.80;2.28;;;;;;;15.32;98.90;98541.50;4988376;28;20026;-68
2023/10/31 02:58:25;;;;;;;5.70;2.20;;;;;;;15.32;98.98;98547.69;4986510;28;20037;-68
2023/10/31 03:00:51;;;;;;;2.22;1.85;;;;;;;15.20;99.34;98539.56;4987737;28;20493;-68
2023/10/31 03:03:16;;;;;;;5.13;2.25;;;;;;;15.26;99.50;98540.53;4987443;28;20053;-67
2023/10/31 03:05:43;;;;;;;2.95;1.90;;;;;;;15.14;98.92;98549.44;5001182;28;20077;-67
2023/10/31 03:08:11;;;;;;;3.63;2.38;;;;;;;15.12;100.00;98541.00;4983952;28;20030;-67
2023/10/31 03:10:38;;;;;;;3.65;2.22;;;;;;;15.16;100.00;98547.81;4990476;28;20061;-67
2023/10/31 03:13:03;;;;;;;3.90;2.13;;;;;;;15.04;100.00;98545.88;4987174;28;20026;-67
2023/10/31 03:15:29;;;;;;;4.65;2.45;;;;;;;15.17;100.00;98543.94;4985959;28;20412;-67
2023/10/31 03:17:55;;;;;;;5.68;2.53;;;;;;;15.14;100.00;98533.19;4986683;28;20034;-67
2023/10/31 03:20:21;;;;;;;4.95;2.72;;;;;;;15.00;100.00;98536.38;5003955;28;20584;-68
2023/10/31 03:22:46;;;;;;;3.78;2.45;;;;;;;15.11;100.00;98529.41;4989062;28;20018;-67
2023/10/31 03:25:11;;;;;;;3.85;2.30;;;;;;;15.13;100.00;98531.69;4987928;28;20488;-67
2023/10/31 03:27:37;;;;;;;6.03;2.85;;;;;;;15.08;100.00;98524.06;4987186;28;20035;-67
2023/10/31 03:30:03;;;;;;;4.45;2.63;;;;;;;15.14;100.00;98516.91;4989473;28;20030;-68
2023/10/31 03:32:28;;;;;;;5.38;2.75;;;;;;;15.14;100.00;98516.91;5008246;28;20045;-67
2023/10/31 03:34:54;;;;;;;4.32;2.75;;;;;;;15.18;100.00;98514.84;4989783;28;20046;-67
2023/10/31 03:37:19;;;;;;;5.03;2.75;;;;;;;15.15;100.00;98508.34;4991379;28;20066;-67
2023/10/31 03:39:45;;;;;;;4.78;2.70;;;;;;;15.16;100.00;98509.84;4988892;28;20042;-67
2023/10/31 03:42:10;;;;;;;5.25;3.08;;;;;;;15.21;100.00;98503.88;4988348;28;20022;-67
2023/10/31 03:44:36;;;;;;;4.80;3.20;;;;;;;15.27;100.00;98498.66;4985831;28;20501;-68
2023/10/31 03:47:02;;;;;;;5.07;2.45;;;;;;;15.20;100.00;98507.03;4988516;28;20042;-67
2023/10/31 03:49:27;;;;;;;5.75;2.90;;;;;;;15.29;100.00;98509.84;4991417;28;20030;-67
2023/10/31 03:51:53;;;;;;;15.00;3.50;;;;;;;15.34;100.00;98504.59;4996494;28;20043;-67
2023/10/31 03:54:18;;;;;;;4.35;2.53;;;;;;;15.43;100.00;98503.94;4990157;28;20038;-67
2023/10/31 03:56:44;;;;;;;5.18;2.95;;;;;;;15.42;99.33;98504.38;4991404;28;20526;-68
2023/10/31 03:59:10;;;;;;;5.00;2.40;;;;;;;15.34;100.00;98501.13;5006113;28;20092;-68
2023/10/31 04:01:35;;;;;;;5.70;3.15;;;;;;;15.39;100.00;98493.19;4999061;28;20033;-68
2023/10/31 04:04:02;;;;;;;4.57;2.88;;;;;;;15.32;100.00;98495.38;4987582;28;20524;-67
2023/10/31 04:06:27;;;;;;;4.35;2.45;;;;;;;15.34;100.00;98499.19;4990055;28;20653;-68
2023/10/31 04:08:52;;;;;;;5.13;3.33;;;;;;;15.26;100.00;98497.13;4990454;28;20112;-67
2023/10/31 04:11:18;;;;;;;5.07;2.60;;;;;;;15.31;100.00;98493.88;4992882;28;20093;-67
2023/10/31 04:13:46;;;;;;;5.03;2.88;;;;;;;15.33;100.00;98486.81;5006594;28;20037;-68
2023/10/31 04:16:14;;;;;;;7.07;2.50;;;;;;;15.36;100.00;98491.38;4989636;28;20099;-69
2023/10/31 04:18:39;;;;;;;6.63;2.63;;;;;;;15.34;100.00;98482.16;4991332;28;20034;-69
2023/10/31 04:21:06;;;;;;;5.45;2.55;;;;;;;15.24;100.00;98491.41;4989843;28;20032;-67
2023/10/31 04:23:31;;;;;;;4.35;2.58;;;;;;;15.28;100.00;98484.66;4984068;28;20088;-67
2023/10/31 04:25:57;;;;;;;3.85;2.15;;;;;;;15.28;100.00;98473.06;5001340;28;20026;-67
2023/10/31 04:28:22;;;;;;;6.95;2.42;;;;;;;15.30;100.00;98482.28;4991457;28;20464;-67
2023/10/31 04:30:47;;;;;;;6.35;2.75;;;;;;;15.45;100.00;98482.56;4999859;28;20038;-68
2023/10/31 04:33:13;;;;;;;4.60;2.13;;;;;;;15.40;100.00;98483.09;4987405;28;20415;-67
2023/10/31 04:35:38;;;;;;;4.28;2.60;;;;;;;15.50;100.00;98486.66;5005382;28;20038;-67
2023/10/31 04:38:04;;;;;;;3.72;2.22;;;;;;;15.45;100.00;98482.56;4990795;28;20039;-67
2023/10/31 04:40:29;;;;;;;5.68;2.78;;;;;;;15.47;100.00;98476.69;4992487;28;20026;-67
2023/10/31 04:42:55;;;;;;;4.55;2.75;;;;;;;15.47;100.00;98476.69;4990018;28;20409;-68
2023/10/31 04:45:20;;;;;;;6.22;2.67;;;;;;;15.49;100.00;98466.91;4988002;28;20173;-67
2023/10/31 04:47:46;;;;;;;3.88;2.25;;;;;;;15.53;100.00;98472.97;4987543;28;20030;-67
2023/10/31 04:50:11;;;;;;;3.90;2.40;;;;;;;15.46;100.00;98462.38;4988189;28;20026;-68
2023/10/31 04:52:37;;;;;;;7.93;2.80;;;;;;;15.53;100.00;98472.97;4989769;28;20042;-67
2023/10/31 04:55:03;;;;;;;5.47;2.95;;;;;;;15.48;100.00;98470.06;4989637;28;20508;-67
2023/10/31 04:57:28;;;;;;;4.88;2.35;;;;;;;15.54;100.00;98463.66;4991357;28;20031;-67
2023/10/31 04:59:54;;;;;;;4.38;2.47;;;;;;;15.59;100.00;98467.75;4992033;28;20511;-67
2023/10/31 05:02:23;;;;;;;2.45;1.90;;;;;;;15.60;100.00;98456.44;4989030;28;20109;-68
2023/10/31 05:04:50;;;;;;;3.42;2.50;;;;;;;15.72;100.00;98452.91;5012721;28;20026;-68
2023/10/31 05:07:19;;;;;;;4.57;2.75;;;;;;;15.60;100.00;98451.00;4987749;28;20097;-68
2023/10/31 05:09:45;;;;;;;5.90;2.55;;;;;;;15.64;100.00;98446.22;4987843;28;20062;-68
2023/10/31 05:12:10;;;;;;;5.90;2.83;;;;;;;15.60;100.00;98453.00;4990689;28;20532;-67
2023/10/31 05:14:36;;;;;;;5.18;2.55;;;;;;;15.60;100.00;98456.44;4990080;28;20049;-68
2023/10/31 05:17:02;;;;;;;4.70;2.78;;;;;;;15.61;100.00;98452.53;4990795;28;20416;-67
2023/10/31 05:19:27;;;;;;;4.47;2.55;;;;;;;15.65;100.00;98453.16;5005149;28;20033;-67
2023/10/31 05:21:53;;;;;;;4.05;2.33;;;;;;;15.69;100.00;98448.38;5004227;28;20495;-67
2023/10/31 05:24:18;;;;;;;3.50;2.58;;;;;;;15.67;100.00;98455.44;4985288;28;20455;-68
2023/10/31 05:26:44;;;;;;;3.65;2.13;;;;;;;15.69;100.00;98459.22;4992235;28;20485;-68
2023/10/31 05:29:10;;;;;;;4.90;2.50;;;;;;;15.70;100.00;98466.16;4991191;28;20030;-67
2023/10/31 05:31:36;;;;;;;2.92;2.28;;;;;;;15.73;100.00;98467.25;4987758;28;20381;-67
2023/10/31 05:34:01;;;;;;;11.68;2.75;;;;;;;15.73;100.00;98459.84;5006325;28;20121;-68
2023/10/31 05:36:27;;;;;;;4.78;2.40;;;;;;;15.70;100.00;98466.16;4990575;28;20456;-68
2023/10/31 05:38:53;;;;;;;5.00;2.33;;;;;;;15.70;100.00;98463.44;4987867;28;20037;-68
2023/10/31 05:41:19;;;;;;;8.02;2.67;;;;;;;15.70;100.00;98460.72;5006350;28;20022;-68
2023/10/31 05:43:45;;;;;;;4.80;2.55;;;;;;;15.69;100.00;98456.50;4986020;28;20118;-69
2023/10/31 05:46:10;;;;;;;5.28;2.72;;;;;;;15.69;100.00;98448.38;4988297;28;20543;-68
2023/10/31 05:48:40;;;;;;;5.72;3.22;;;;;;;15.78;100.00;98447.66;4990531;28;20480;-67
2023/10/31 05:51:16;;;;;;;4.20;2.10;;;;;;;15.76;100.00;98458.19;4989554;28;20027;-67
2023/10/31 05:53:44;;;;;;;6.13;2.53;;;;;;;15.73;100.00;98454.44;4969868;28;20038;-67
2023/10/31 05:56:09;;;;;;;5.45;2.90;;;;;;;15.72;100.00;98446.72;4989689;28;20038;-68
2023/10/31 05:58:37;;;;;;;5.15;2.58;;;;;;;15.70;100.00;98447.16;4998959;28;20057;-67
2023/10/31 06:01:03;;;;;;;5.82;2.70;;;;;;;15.75;100.00;98452.03;4993073;28;20053;-68
2023/10/31 06:03:28;;;;;;;4.70;2.55;;;;;;;15.79;100.00;98449.94;4989615;28;20084;-68
2023/10/31 06:05:54;;;;;;;6.90;2.42;;;;;;;15.75;100.00;98445.84;5000517;28;20043;-68
2023/10/31 06:08:20;;;;;;;4.82;2.63;;;;;;;15.75;100.00;98449.31;4983758;28;20053;-68
2023/10/31 06:10:47;;;;;;;6.43;2.85;;;;;;;15.76;100.00;98442.69;4988183;28;20024;-68
2023/10/31 06:13:13;;;;;;;5.38;2.85;;;;;;;15.80;100.00;98450.69;4989179;28;20525;-68
2023/10/31 06:15:39;;;;;;;5.05;2.38;;;;;;;15.86;100.00;98444.25;4991454;28;20127;-68
2023/10/31 06:18:04;;;;;;;4.85;2.30;;;;;;;15.91;100.00;98451.81;4994896;28;20397;-67
2023/10/31 06:20:30;;;;;;;4.30;2.17;;;;;;;15.83;100.00;98447.84;4988963;28;20034;-68
2023/10/31 06:22:55;;;;;;;5.15;2.15;;;;;;;15.78;100.00;98456.56;4991482;28;20061;-67
2023/10/31 06:25:20;;;;;;;3.20;1.98;;;;;;;15.79;100.00;98457.31;4987883;28;20034;-67
2023/10/31 06:27:46;;;;;;;3.17;1.60;;;;;;;15.77;100.00;98454.28;4992351;28;20036;-67
2023/10/31 06:30:12;;;;;;;2.67;1.58;;;;;;;15.78;100.00;98450.38;4987339;28;20731;-67
2023/10/31 06:32:40;;;;;;;2.67;1.23;;;;;;;15.76;100.00;98445.38;4987207;28;20034;-68
2023/10/31 06:35:06;;;;;;;2.72;1.77;;;;;;;15.78;100.00;98447.66;4990414;28;20048;-67
2023/10/31 06:37:32;;;;;;;3.85;3.00;;;;;;;15.61;100.00;98443.63;5004124;28;20116;-67
2023/10/31 06:39:57;;;;;;;4.47;2.45;;;;;;;15.69;100.00;98442.94;4989639;28;20390;-68
2023/10/31 06:42:23;;;;;;;3.97;2.15;;;;;;;15.71;100.00;98445.97;4990086;28;20022;-67
2023/10/31 06:44:48;;;;;;;4.13;2.58;;;;;;;15.89;100.00;98451.50;4987099;28;20077;-67
2023/10/31 06:47:14;;;;;;;4.55;2.35;;;;;;;15.88;100.00;98454.66;4988972;28;20114;-67
2023/10/31 06:49:39;;;;;;;5.95;2.40;;;;;;;15.87;100.00;98447.72;4989248;28;20037;-67
2023/10/31 06:52:05;;;;;;;4.22;2.47;;;;;;;15.91;100.00;98448.34;4990164;28;20042;-67
2023/10/31 06:54:31;;;;;;;3.63;2.17;;;;;;;15.84;100.00;98456.75;4991239;28;20044;-68
2023/10/31 06:56:57;;;;;;;3.35;1.88;;;;;;;15.82;100.00;98456.44;4989934;28;20045;-67
2023/10/31 06:59:22;;;;;;;3.60;2.60;;;;;;;15.77;100.00;98452.34;4990231;28;20113;-67
2023/10/31 07:01:47;;;;;;;1.45;1.00;;;;;;;15.78;100.00;98453.09;4988629;28;20468;-67
2023/10/31 07:04:13;;;;;;;1.88;0.88;;;;;;;15.62;100.00;98450.59;5006314;28;20030;-67
2023/10/31 07:06:39;;;;;;;0.55;0.45;;;;;;;15.49;100.00;98449.88;4988856;28;20037;-68
2023/10/31 07:09:05;;;;;;;1.35;0.90;;;;;;;15.32;100.00;98449.28;4984057;28;20671;-68
2023/10/31 07:11:33;;;;;;;0.80;0.68;;;;;;;15.35;100.00;98460.00;4990685;28;20076;-67
2023/10/31 07:14:02;;;;;;;0.85;0.70;;;;;;;15.33;100.00;98459.69;5000180;28;20035;-68
2023/10/31 07:16:27;;;;;;;0.47;0.47;;;;;;;15.31;100.00;98461.34;4989152;28;20030;-67
2023/10/31 07:18:53;;;;;;;1.35;0.80;;;;;;;15.34;100.00;98457.72;4990615;28;20088;-67
2023/10/31 07:21:18;;;;;;;1.83;0.60;;;;;;;15.22;100.00;98458.53;4994018;28;20033;-67
2023/10/31 07:23:44;;;;;;;1.05;0.95;;;;;;;14.95;100.00;98467.19;4996480;28;20503;-68
2023/10/31 07:26:12;;;;;;;1.73;1.00;;;;;;;15.18;100.00;98472.22;4993371;28;20458;-67
2023/10/31 07:28:37;;;;;;;1.50;0.73;;;;;;;15.22;100.00;98474.81;4994030;28;20018;-67
2023/10/31 07:31:05;;;;;;;2.13;1.20;;;;;;;15.22;100.00;98475.56;4988412;28;20022;-67
2023/10/31 07:33:30;;;;;;;1.95;1.10;;;;;;;14.93;100.00;98475.00;4994760;28;20034;-67
2023/10/31 07:35:56;;;;;;;3.63;1.15;;;;;;;15.02;100.00;98477.78;4992989;28;20019;-68
2023/10/31 07:38:21;;;;;;;2.65;1.67;;;;;;;14.99;100.00;98467.06;4991744;28;20040;-67
2023/10/31 07:40:49;;;;;;;3.28;2.17;;;;;;;15.01;100.00;98473.56;4990102;28;20175;-67
2023/10/31 07:43:15;;;;;;;3.58;2.00;;;;;;;15.15;100.00;98477.78;4993507;28;20030;-67
2023/10/31 07:45:41;;;;;;;4.57;2.72;;;;;;;15.05;100.00;98484.28;4989836;28;20034;-68
2023/10/31 07:48:07;;;;;;;5.05;2.28;;;;;;;14.88;100.00;98477.50;4994169;28;20089;-68
2023/10/31 07:50:33;;;;;;;4.97;2.55;;;;;;;14.77;100.00;98472.41;4992793;28;20022;-68
2023/10/31 07:52:58;;;;;;;4.72;2.45;;;;;;;14.68;100.00;98474.28;5006499;28;20069;-68
2023/10/31 07:55:24;;;;;;;4.38;2.17;;;;;;;14.80;100.00;98476.97;4992100;28;20644;-68
2023/10/31 07:57:50;;;;;;;5.10;2.15;;;;;;;14.72;100.00;98491.94;4992569;28;20030;-67
2023/10/31 08:00:16;;;;;;;3.00;1.92;;;;;;;14.78;100.00;98478.59;4992884;28;20026;-67
2023/10/31 08:02:41;;;;;;;3.30;1.45;;;;;;;14.80;100.00;98487.06;5003906;28;20536;-68
2023/10/31 08:05:07;;;;;;;2.38;1.15;;;;;;;14.49;100.00;98481.44;4992081;28;20125;-67
2023/10/31 08:07:33;;;;;;;1.13;0.88;;;;;;;14.41;100.00;98483.63;4993869;28;20030;-68
2023/10/31 08:09:58;;;;;;;1.73;1.15;;;;;;;14.45;100.00;98484.28;4989474;28;20035;-68
2023/10/31 08:12:24;;;;;;;0.70;0.50;;;;;;;14.42;100.00;98485.13;4992537;28;20491;-67
2023/10/31 08:14:49;;;;;;;0.80;0.45;;;;;;;14.39;100.00;98480.59;4993780;28;20038;-68
2023/10/31 08:17:14;;;;;;;0.45;0.38;;;;;;;14.36;100.00;98486.84;4989779;28;20038;-68
2023/10/31 08:19:40;;;;;;;0.30;0.30;;;;;;;14.30;100.00;98483.16;4990677;28;20041;-67
2023/10/31 08:22:05;;;;;;;0.73;0.30;;;;;;;14.23;100.00;98488.78;4993055;28;20023;-67
2023/10/31 08:24:31;;;;;;;0.35;0.17;;;;;;;14.28;100.00;98491.00;4991486;28;20023;-68
2023/10/31 08:26:56;;;;;;;0.30;0.30;;;;;;;14.28;100.00;98485.56;4991448;28;20471;-67
2023/10/31 08:29:24;;;;;;;0.22;0.22;;;;;;;14.11;100.00;98488.78;4970446;28;20061;-67
2023/10/31 08:31:49;;;;;;;0.40;0.38;;;;;;;14.27;100.00;98489.47;5006697;28;20034;-68
2023/10/31 08:34:15;;;;;;;0.17;0.17;;;;;;;14.18;100.00;98481.19;4992622;28;20032;-68
2023/10/31 08:36:40;;;;;;;0.30;0.30;;;;;;;14.30;100.00;98487.84;4993668;28;20033;-68
2023/10/31 08:39:06;;;;;;;0.30;0.30;;;;;;;14.33;100.00;98493.16;5006870;28;20038;-67
2023/10/31 08:41:31;;;;;;;0.43;0.30;;;;;;;14.17;100.00;98493.22;4990927;28;20432;-68
2023/10/31 08:43:58;;;;;;;0.22;0.20;;;;;;;14.13;100.00;98494.53;4984633;28;20113;-68
2023/10/31 08:46:23;;;;;;;0.30;0.25;;;;;;;14.26;100.00;98482.50;4992143;28;20042;-67
2023/10/31 08:48:49;;;;;;;0.15;0.15;;;;;;;14.41;100.00;98488.28;4989613;28;20049;-68
2023/10/31 08:51:14;;;;;;;0.10;0.10;;;;;;;14.31;100.00;98489.34;4992023;28;20080;-67
2023/10/31 08:53:39;;;;;;;0.10;0.10;;;;;;;14.28;100.00;98490.22;4993081;28;20097;-68
2023/10/31 08:56:05;;;;;;;0.20;0.20;;;;;;;14.08;100.00;98487.69;4990196;28;20146;-67
2023/10/31 08:58:30;;;;;;;0.25;0.20;;;;;;;14.30;100.00;98496.72;4992040;28;20027;-68
2023/10/31 09:00:56;;;;;;;0.65;0.38;;;;;;;14.35;99.53;98487.28;4990339;28;20053;-67
2023/10/31 09:03:21;;;;;;;0.47;0.47;;;;;;;14.41;99.75;98491.75;4989334;28;20034;-67
2023/10/31 09:05:47;;;;;;;0.08;0.08;;;;;;;14.19;100.00;98492.78;4992361;28;20121;-67
2023/10/31 09:08:12;;;;;;;0.20;0.20;;;;;;;14.02;100.00;98489.41;4992479;28;20061;-67
2023/10/31 09:10:38;;;;;;;0.20;0.20;;;;;;;14.15;100.00;98484.75;4987803;28;20034;-67
2023/10/31 09:13:06;;;;;;;0.10;0.10;;;;;;;14.31;100.00;98489.34;4982878;28;20060;-67
2023/10/31 09:15:31;;;;;;;0.28;0.20;;;;;;;14.41;100.00;98494.47;4991265;28;20065;-67
2023/10/31 09:17:57;;;;;;;0.80;0.10;;;;;;;14.29;100.00;98495.22;4997967;28;20035;-67
2023/10/31 09:20:22;;;;;;;0.20;0.20;;;;;;;14.46;99.68;98496.63;5001583;28;20113;-67
2023/10/31 09:22:48;;;;;;;0.10;0.10;;;;;;;14.44;99.86;98504.41;5001070;28;20051;-67
2023/10/31 09:25:13;;;;;;;0.10;0.10;;;;;;;14.53;100.00;98498.34;4989217;28;20038;-67
2023/10/31 09:27:42;;;;;;;0.10;0.10;;;;;;;14.44;100.00;98506.34;5005169;28;20396;-68
2023/10/31 09:30:07;;;;;;;0.20;0.20;;;;;;;14.30;100.00;98515.66;4989996;28;20524;-67
2023/10/31 09:32:33;;;;;;;1.02;0.30;;;;;;;14.10;100.00;98509.66;5010110;28;20121;-67
2023/10/31 09:34:58;;;;;;;2.22;0.20;;;;;;;14.25;100.00;98529.72;4995449;28;21865;-68
2023/10/31 09:37:24;;;;;;;0.38;0.20;;;;;;;14.27;100.00;98524.66;4989595;28;20033;-67
2023/10/31 09:39:49;;;;;;;0.20;0.20;;;;;;;13.99;100.00;98536.28;4992703;28;20042;-68
2023/10/31 09:42:15;;;;;;;0.25;0.10;;;;;;;14.14;100.00;98534.69;4990829;28;20014;-68
2023/10/31 09:44:40;;;;;;;0.40;0.30;;;;;;;14.29;100.00;98549.34;4990970;28;20038;-68
2023/10/31 09:47:06;;;;;;;0.10;0.10;;;;;;;14.11;100.00;98567.28;4988044;28;20041;-67
2023/10/31 09:49:31;;;;;;;0.30;0.30;;;;;;;13.86;100.00;98567.19;4989929;28;20030;-67
2023/10/31 09:51:58;;;;;;;0.30;0.30;;;;;;;13.68;100.00;98572.31;4990462;28;20655;-67
2023/10/31 09:54:25;;;;;;;0.30;0.30;;;;;;;13.93;100.00;98581.28;4991820;28;20042;-67
2023/10/31 09:56:51;;;;;;;0.40;0.40;;;;;;;14.11;100.00;98580.81;5006700;28;20109;-67
2023/10/31 09:59:20;;;;;;;0.45;0.45;;;;;;;14.12;100.00;98607.44;4989705;28;20173;-68
2023/10/31 10:01:45;;;;;;;0.40;0.32;;;;;;;14.09;100.00;98621.09;4995092;28;20092;-67
2023/10/31 10:04:11;;;;;;;0.20;0.20;;;;;;;14.16;100.00;98629.78;4991089;28;20484;-68
2023/10/31 10:06:40;;;;;;;1.55;0.30;;;;;;;13.83;100.00;98620.22;4990066;28;20026;-68
2023/10/31 10:09:08;;;;;;;0.28;0.28;;;;;;;13.64;100.00;98640.03;4987492;28;20050;-67
2023/10/31 10:11:33;;;;;;;0.73;0.52;;;;;;;13.56;100.00;98658.38;4989534;28;20026;-68
2023/10/31 10:13:59;;;;;;;0.30;0.30;;;;;;;13.64;100.00;98658.97;4998314;28;20049;-67
2023/10/31 10:16:30;;;;;;;0.30;0.30;;;;;;;13.64;100.00;98677.91;4987691;28;20504;-68
2023/10/31 10:18:55;;;;;;;0.20;0.20;;;;;;;13.55;100.00;98683.13;5002582;28;20404;-68
2023/10/31 10:21:21;;;;;;;1.05;0.30;;;;;;;13.25;100.00;98697.75;4988240;28;20092;-68
2023/10/31 10:23:47;;;;;;;4.10;0.30;;;;;;;13.26;100.00;98703.88;5006073;28;20452;-68
2023/10/31 10:26:13;;;;;;;0.55;0.20;;;;;;;13.27;100.00;98703.50;5005372;28;20030;-67
2023/10/31 10:28:39;;;;;;;0.28;0.28;;;;;;;13.23;100.00;98721.72;4991061;28;20472;-68
2023/10/31 10:31:06;;;;;;;0.05;0.03;;;;;;;13.41;100.00;98734.84;4986578;28;20034;-67
2023/10/31 10:33:34;;;;;;;0.20;0.20;;;;;;;13.49;100.00;98752.44;4980885;28;20037;-67
2023/10/31 10:35:59;;;;;;;0.22;0.22;;;;;;;13.61;100.00;98753.72;4988494;28;20084;-68
2023/10/31 10:38:30;;;;;;;1.55;0.22;;;;;;;13.46;100.00;98764.09;4987968;28;20046;-67
2023/10/31 10:41:04;;;;;;;0.22;0.22;;;;;;;13.09;100.00;98769.91;4985747;28;20042;-68
2023/10/31 10:43:36;;;;;;;0.05;0.05;;;;;;;12.95;100.00;98786.38;4985164;28;20039;-67
2023/10/31 10:46:04;;;;;;;0.80;0.20;;;;;;;13.00;100.00;98805.56;4987420;28;20049;-67
2023/10/31 10:48:35;;;;;;;0.03;0.03;;;;;;;13.13;100.00;98808.44;4987478;28;20097;-67
2023/10/31 10:51:24;;;;;;;0.85;0.30;;;;;;;13.25;100.00;98821.31;4997034;28;20038;-67
2023/10/31 10:53:55;;;;;;;0.20;0.20;;;;;;;13.15;100.00;98825.00;4983638;28;20034;-67
2023/10/31 10:56:38;;;;;;;0.20;0.20;;;;;;;13.27;100.00;98837.88;4986561;28;20048;-66
2023/10/31 10:59:18;;;;;;;0.10;0.10;;;;;;;13.44;100.00;98840.22;4989606;28;20034;-67
2023/10/31 11:01:46;;;;;;;0.10;0.10;;;;;;;13.42;100.00;98858.81;4986589;28;20035;-67
2023/10/31 11:04:13;;;;;;;0.30;0.30;;;;;;;13.57;100.00;98862.75;4969954;28;20539;-67
2023/10/31 11:06:42;;;;;;;0.20;0.20;;;;;;;13.76;100.00;98872.03;4993349;28;20129;-67
2023/10/31 11:09:10;;;;;;;0.50;0.30;;;;;;;13.85;100.00;98879.53;4993846;28;20045;-67
2023/10/31 11:11:38;;;;;;;0.45;0.30;;;;;;;13.89;100.00;98886.41;4989765;28;20105;-67
2023/10/31 11:14:04;;;;;;;0.20;0.20;;;;;;;13.76;100.00;98885.53;4989069;28;20044;-67
2023/10/31 11:16:44;;;;;;;0.10;0.10;;;;;;;13.91;100.00;98904.94;4986687;28;20113;-67
2023/10/31 11:19:11;;;;;;;0.20;0.20;;;;;;;14.01;99.71;98899.31;4991230;28;20029;-67
2023/10/31 11:21:57;;;;;;;0.20;0.20;;;;;;;14.08;99.66;98906.47;4993799;28;20100;-67